Terminal Aerodrome Forecast
Issued by NWS Cleveland, OH

Home | Current Version | Previous Version | Graphics & Text | Print | Product List | Glossary Off
Versions: 1 2 3 4 5 6 7 8 9 10 11 12 13

437
FTUS41 KCLE 262331
TAFMFD
TAF
KMFD 262331Z 2700/2724 24008KT P6SM VCSH SCT050 BKN150
      TEMPO 2700/2702 3SM -TSRA SCT025CB OVC035
     FM270200 23006KT P6SM SCT045 BKN200
     FM270700 26006KT P6SM FEW035 SCT200
      TEMPO 2707/2709 SCT006 BKN012
     FM271200 29008KT P6SM FEW020 SCT060
     FM272300 26006KT P6SM SCT040=

USA.gov is the U.S. government's official web portal to all federal, state and local government web resources and services.